Friday, August 1, 2014, 10:25 PM EDT

KFDK, Frederick, Frederick Municipal Airport

Location: Frederick, MD, United States Lat: 39.417
Local Time: 10:25 PM EDT ( 2:25 GMT) Lon: -77.374
Time Zone: US/Eastern Elev: 301 ft

Show me the last for .
Show Decoded

2014-08-01 22:00 METAR KFDK 020200Z AUTO 10003KT 10SM SCT040 SCT050 OVC095 21/21 A3020 RMK AO2 =
2014-08-01 21:40 METAR KFDK 020140Z AUTO 00000KT 10SM SCT033 SCT040 OVC095 21/21 A3020 RMK AO2 =
2014-08-01 21:20 METAR KFDK 020120Z AUTO 00000KT 10SM OVC035 21/21 A3019 RMK AO2 =
2014-08-01 21:00 METAR KFDK 020100Z AUTO 00000KT 10SM OVC037 22/21 A3019 RMK AO2 LTG DSNT W =
2014-08-01 20:40 METAR KFDK 020040Z AUTO 00000KT 10SM BKN037 OVC100 22/21 A3018 RMK AO2 =
2014-08-01 19:50 METAR KFDK 012350Z 00000KT 10SM SKC 23/20 A3018 =
2014-08-01 18:55 METAR KFDK 012255Z 00000KT 10SM OVC100 24/20 A3018 =
2014-08-01 17:45 METAR KFDK 012145Z 24004KT 10SM SCT080 26/20 A3019 =
2014-08-01 16:55 METAR KFDK 012055Z 20005KT 10SM SCT080 25/19 A3019 =
2014-08-01 15:45 METAR KFDK 011945Z 23005KT 10SM SCT043 BKN120 25/19 A3020 =
2014-08-01 13:45 METAR KFDK 011745Z 22006KT 10SM BKN110 26/20 A3022 =
2014-08-01 12:45 METAR KFDK 011645Z 23007KT 10SM SCT025 SCT055 BKN120 26/21 A3023 =
2014-08-01 11:45 METAR KFDK 011545Z 24007KT 10SM SCT018 SCT075 BKN120 24/22 A3022 =
2014-08-01 11:10 METAR KFDK 011510Z 20007KT 5SM HZ BKN016 25/22 A3022 =
2014-08-01 10:50 METAR KFDK 011450Z 21005KT 5SM HZ SCT015 SCT070 24/22 A3021 =
2014-08-01 09:55 METAR KFDK 011355Z 21005KT 5SM HZ SCT015 24/22 A3020 =
2014-08-01 08:45 METAR KFDK 011245Z 00000KT 7SM SKC 22/21 A3020 =
2014-08-01 07:45 METAR KFDK 011145Z 00000KT 5SM BR SKC 19/19 A3020 =
2014-08-01 06:45 METAR KFDK 011045Z 00000KT 5SM BR HZ SKC 18/18 A3018 =
2014-08-01 06:35 METAR KFDK 011035Z AUTO 00000KT 5SM BR CLR 18/18 A3018 =
2014-08-01 06:20 METAR KFDK 011020Z AUTO 00000KT 2SM BR CLR 18/18 A3018 RMK AO2 =
2014-08-01 06:00 METAR KFDK 011000Z AUTO 00000KT 2SM BR CLR 17/17 A3017 RMK AO2 LTG DSNT W =
2014-08-01 05:40 METAR KFDK 010940Z AUTO 00000KT 3SM BR CLR 17/17 A3016 RMK AO2 =
2014-08-01 05:20 METAR KFDK 010920Z AUTO 00000KT 5SM BR SCT110 18/18 A3016 RMK AO2 =
2014-08-01 05:00 METAR KFDK 010900Z AUTO 00000KT 4SM BR BKN110 18/18 A3016 RMK AO2 =
2014-08-01 04:40 METAR KFDK 010840Z AUTO 00000KT 4SM BR SCT110 18/18 A3015 RMK AO2 =
2014-08-01 04:20 METAR KFDK 010820Z AUTO 00000KT 5SM BR SCT110 18/18 A3016 RMK AO2 =
2014-08-01 04:00 METAR KFDK 010800Z AUTO 00000KT 7SM SCT110 18/18 A3016 RMK AO2 =
2014-08-01 03:40 METAR KFDK 010740Z AUTO 00000KT 7SM SCT110 18/18 A3016 RMK AO2 =
2014-08-01 03:20 METAR KFDK 010720Z AUTO 00000KT 7SM CLR 18/18 A3016 RMK AO2 =
2014-08-01 03:00 METAR KFDK 010700Z AUTO 00000KT 7SM CLR 18/18 A3016 RMK AO2 =
2014-08-01 02:40 METAR KFDK 010640Z AUTO 00000KT 7SM CLR 18/18 A3016 RMK AO2 =
2014-08-01 02:20 METAR KFDK 010620Z AUTO 00000KT 7SM CLR 18/18 A3016 RMK AO2 =
2014-08-01 02:00 METAR KFDK 010600Z AUTO 00000KT 7SM SCT085 18/18 A3016 =
2014-08-01 01:40 METAR KFDK 010540Z AUTO 00000KT 10SM SCT085 18/18 A3017 RMK AO2 =
2014-08-01 01:20 METAR KFDK 010520Z AUTO 00000KT 10SM SCT090 18/18 A3016 RMK AO2 =
2014-08-01 01:00 METAR KFDK 010500Z AUTO 00000KT 10SM SCT090 18/18 A3016 RMK AO2 =
2014-08-01 00:40 METAR KFDK 010440Z AUTO 00000KT 10SM SCT120 18/18 A3016 RMK AO2 =
2014-08-01 00:00 METAR KFDK 010400Z AUTO 00000KT 10SM OVC120 19/19 A3015 RMK AO2 =
2014-07-31 23:40 METAR KFDK 010340Z AUTO 00000KT 10SM OVC120 19/18 A3015 RMK AO2 =
2014-07-31 23:20 METAR KFDK 010320Z AUTO 00000KT 10SM SCT120 19/18 A3015 RMK AO2 =
2014-07-31 23:00 METAR KFDK 010300Z AUTO 00000KT 10SM CLR 20/18 A3015 =
2014-07-31 22:40 METAR KFDK 010240Z AUTO 00000KT 10SM CLR 19/18 A3015 RMK AO2 =

Support USWX by starting your Amazon purchase here.